Terminal Aerodrome Forecast
Issued by NWS Atlanta, GA

Home | Current Version | Previous Version | Text Only | Print | Product List | Glossary On
Versions: 1 2 3 4 5 6 7 8 9 10 11 12 13 14 15 16 17 18 19 20 21
000
FTUS42 KFFC 241239 AAA
TAFMCN
TAF AMD
KMCN 241239Z 2413/2512 20003KT 3SM BR FEW004 BKN070
      TEMPO 2413/2415 20006KT 1/4SM FG BKN002
     FM241500 19010KT P6SM BKN040
     FM241900 21010G15KT P6SM BKN050
     FM250200 19008KT P6SM SCT050 BKN250
     FM250600 20008KT P6SM OVC100
     FM251100 21008KT P6SM -SHRA BKN025=

USA.gov is the U.S. government's official web portal to all federal, state and local government web resources and services.